createdAt,value
2018-02-17T00:00:56.806Z,38.87
2018-02-17T00:03:25.020Z,42.67
2018-02-17T00:05:53.964Z,44.13
2018-02-17T00:08:22.141Z,48.03
2018-02-17T00:10:50.309Z,45.00
2018-02-17T00:13:18.482Z,40.17
2018-02-17T00:15:46.660Z,44.47
2018-02-17T00:18:14.895Z,46.23
2018-02-17T00:20:43.827Z,66.07
2018-02-17T00:23:11.990Z,42.70
2018-02-17T00:25:40.167Z,44.73
2018-02-17T00:28:08.375Z,40.23
2018-02-17T00:30:37.303Z,41.47
2018-02-17T00:33:06.244Z,44.83
2018-02-17T00:35:34.418Z,42.80
2018-02-17T00:38:02.596Z,35.60
2018-02-17T00:40:30.802Z,42.60
2018-02-17T00:43:01.747Z,42.77
2018-02-17T00:45:29.914Z,44.70
2018-02-17T00:47:58.118Z,45.07
2018-02-17T00:50:26.284Z,50.80
2018-02-17T00:52:54.463Z,46.83
2018-02-17T00:55:22.638Z,47.40
2018-02-17T00:57:50.841Z,57.83
2018-02-17T01:00:19.786Z,58.80
2018-02-17T01:02:47.954Z,53.20
2018-02-17T01:05:16.168Z,53.10
2018-02-17T01:07:44.343Z,54.93
2018-02-17T01:10:12.529Z,57.20
2018-02-17T01:12:41.464Z,49.40
2018-02-17T01:15:09.661Z,47.03
2018-02-17T01:17:37.863Z,51.10
2018-02-17T01:20:06.032Z,47.87
2018-02-17T01:22:34.202Z,48.77
2018-02-17T01:25:02.375Z,50.40
2018-02-17T01:27:30.555Z,49.27
2018-02-17T01:29:58.748Z,49.23
2018-02-17T01:32:27.702Z,46.30
2018-02-17T01:34:55.930Z,43.90
2018-02-17T01:37:24.960Z,51.53
2018-02-17T01:39:53.157Z,48.63
2018-02-17T01:42:21.393Z,43.70
2018-02-17T01:44:49.583Z,43.20
2018-02-17T01:47:17.771Z,42.30
2018-02-17T01:49:45.986Z,43.27
2018-02-17T01:52:14.164Z,40.53
2018-02-17T01:54:43.158Z,41.07
2018-02-17T01:57:11.322Z,40.70
2018-02-17T01:59:39.510Z,41.87
2018-02-17T02:02:08.449Z,39.70
2018-02-17T02:04:36.644Z,46.30
2018-02-17T02:07:04.846Z,44.40
2018-02-17T02:09:33.033Z,47.70
2018-02-17T02:12:01.968Z,37.43
2018-02-17T02:14:30.154Z,42.07
2018-02-17T02:16:58.327Z,40.40
2018-02-17T02:19:26.506Z,45.60
2018-02-17T02:21:54.695Z,41.40
2018-02-17T02:24:22.858Z,43.97
2018-02-17T02:26:51.034Z,41.87
2018-02-17T02:29:19.199Z,45.33
2018-02-17T02:31:47.380Z,44.93
2018-02-17T02:34:15.554Z,42.73
2018-02-17T02:36:44.530Z,44.07
2018-02-17T02:39:12.712Z,44.43
2018-02-17T02:41:40.946Z,41.17
2018-02-17T02:44:09.910Z,42.70
2018-02-17T02:46:38.121Z,41.03
2018-02-17T02:49:07.092Z,45.50
2018-02-17T02:51:35.286Z,45.30
2018-02-17T02:54:04.223Z,45.23
2018-02-17T02:56:32.422Z,45.13
2018-02-17T02:59:00.599Z,47.53
2018-02-17T03:01:28.804Z,39.30
2018-02-17T03:03:57.747Z,41.60
2018-02-17T03:06:25.922Z,38.87
2018-02-17T03:08:54.128Z,45.20
2018-02-17T03:11:22.292Z,42.93
2018-02-17T03:13:50.471Z,43.63
2018-02-17T03:16:18.666Z,48.70
2018-02-17T03:18:47.617Z,41.63
2018-02-17T03:21:15.860Z,45.40
2018-02-17T03:23:44.066Z,46.03
2018-02-17T03:26:12.225Z,46.43
2018-02-17T03:28:40.462Z,47.57
2018-02-17T03:31:09.407Z,42.70
2018-02-17T03:33:37.618Z,45.10
2018-02-17T03:36:05.781Z,48.03
2018-02-17T03:38:33.969Z,39.87
2018-02-17T03:41:02.176Z,36.77
2018-02-17T03:43:30.354Z,38.53
2018-02-17T03:45:58.574Z,42.60
2018-02-17T03:48:26.741Z,45.13
2018-02-17T03:50:55.718Z,38.60
2018-02-17T03:53:23.886Z,39.87
2018-02-17T03:55:52.070Z,42.63
2018-02-17T03:58:20.258Z,45.80
2018-02-17T04:00:48.455Z,41.00
2018-02-17T04:03:16.632Z,42.10
2018-02-17T04:05:44.819Z,46.67
2018-02-17T04:08:13.794Z,41.30
2018-02-17T04:10:41.998Z,40.50
2018-02-17T04:13:10.942Z,40.60
2018-02-17T04:15:39.125Z,45.10
2018-02-17T04:18:07.324Z,40.97
2018-02-17T04:20:36.266Z,46.13
2018-02-17T04:23:04.436Z,42.20
2018-02-17T04:25:32.641Z,34.63
2018-02-17T04:28:00.822Z,39.90
2018-02-17T04:30:28.995Z,39.77
2018-02-17T04:32:57.162Z,41.37
2018-02-17T04:35:25.321Z,38.30
2018-02-17T04:37:54.279Z,39.50
2018-02-17T04:43:26.597Z,40.37
2018-02-17T04:45:55.290Z,41.57
2018-02-17T04:51:43.850Z,40.57
2018-02-17T04:57:15.445Z,42.13
2018-02-17T04:59:47.136Z,47.50
2018-02-17T05:02:21.722Z,42.47
2018-02-17T05:04:55.431Z,38.73
2018-02-17T05:07:24.011Z,39.80
2018-02-17T05:09:52.950Z,42.40
2018-02-17T05:12:21.894Z,46.23
2018-02-17T05:15:04.949Z,37.07
2018-02-17T05:17:39.509Z,37.40
2018-02-17T05:20:07.722Z,47.17
2018-02-17T05:22:36.314Z,42.73
2018-02-17T05:25:11.094Z,43.93
2018-02-17T05:30:41.216Z,43.93
2018-02-17T05:33:21.878Z,43.43
2018-02-17T05:35:56.311Z,45.60
2018-02-17T05:38:25.125Z,42.20
2018-02-17T05:40:54.079Z,44.33
2018-02-17T05:43:23.037Z,42.77
2018-02-17T05:48:49.633Z,38.30
2018-02-17T05:51:18.586Z,37.03
2018-02-17T05:53:46.757Z,40.10
2018-02-17T05:56:14.934Z,40.63
2018-02-17T05:58:43.103Z,41.73
2018-02-17T06:01:11.266Z,40.80
2018-02-17T06:03:39.432Z,38.53
2018-02-17T06:06:07.602Z,41.40
2018-02-17T06:08:35.771Z,41.80
2018-02-17T06:11:03.950Z,39.67
2018-02-17T06:13:32.126Z,40.50
2018-02-17T06:16:00.286Z,42.97
2018-02-17T06:18:28.456Z,37.87
2018-02-17T06:20:56.617Z,42.30
2018-02-17T06:23:25.545Z,41.57
2018-02-17T06:25:53.712Z,41.07
2018-02-17T06:28:21.875Z,42.87
2018-02-17T06:30:50.065Z,44.37
2018-02-17T06:33:18.253Z,43.20
2018-02-17T06:35:46.418Z,39.93
2018-02-17T06:38:14.606Z,39.17
2018-02-17T06:40:43.550Z,40.27
2018-02-17T06:43:11.722Z,40.70
2018-02-17T06:45:40.665Z,39.60
2018-02-17T06:48:08.834Z,43.60
2018-02-17T06:50:36.997Z,42.57
2018-02-17T06:53:05.174Z,41.33
2018-02-17T06:55:33.341Z,35.57
2018-02-17T06:58:01.518Z,39.50
2018-02-17T07:00:29.727Z,41.70
2018-02-17T07:02:57.890Z,46.10
2018-02-17T07:05:26.055Z,41.93
2018-02-17T07:07:54.259Z,38.60
2018-02-17T07:10:22.427Z,39.07
2018-02-17T07:12:50.607Z,38.03
2018-02-17T07:15:18.840Z,42.27
2018-02-17T07:17:47.006Z,38.37
2018-02-17T07:20:15.163Z,42.40
2018-02-17T07:22:43.355Z,40.80
2018-02-17T07:25:11.537Z,41.87
2018-02-17T07:27:39.703Z,42.83
2018-02-17T07:30:07.861Z,39.37
2018-02-17T07:32:36.035Z,42.93
2018-02-17T07:35:04.248Z,41.27
2018-02-17T07:37:32.407Z,41.07
2018-02-17T07:40:00.602Z,39.30
2018-02-17T07:42:28.806Z,46.30
2018-02-17T07:44:56.986Z,40.37
2018-02-17T07:47:25.919Z,41.53
2018-02-17T07:49:54.089Z,42.20
2018-02-17T07:52:22.269Z,40.63
2018-02-17T07:54:50.430Z,44.03
2018-02-17T07:57:18.611Z,40.17
2018-02-17T07:59:46.775Z,37.97
2018-02-17T08:02:14.999Z,37.30
2018-02-17T08:04:43.175Z,42.30
2018-02-17T08:07:11.377Z,34.00
2018-02-17T08:09:40.419Z,34.50
2018-02-17T08:12:08.586Z,34.53
2018-02-17T08:14:36.769Z,33.77
2018-02-17T08:17:04.935Z,32.33
2018-02-17T08:19:33.165Z,35.77
2018-02-17T08:22:01.369Z,30.73
2018-02-17T08:24:29.542Z,31.87
2018-02-17T08:26:57.707Z,34.40
2018-02-17T08:29:26.669Z,36.27
2018-02-17T08:31:54.850Z,32.57
2018-02-17T08:34:23.022Z,46.93
2018-02-17T08:36:51.206Z,36.07
2018-02-17T08:39:19.395Z,36.90
2018-02-17T08:41:48.352Z,39.03
2018-02-17T08:44:16.551Z,38.90
2018-02-17T08:46:45.498Z,35.30
2018-02-17T08:49:13.684Z,38.23
2018-02-17T08:51:41.849Z,34.40
2018-02-17T08:54:10.016Z,34.60
2018-02-17T08:56:38.194Z,39.57
2018-02-17T08:59:06.368Z,37.80
2018-02-17T09:01:34.933Z,35.27
2018-02-17T09:04:03.097Z,34.27
2018-02-17T09:06:32.061Z,34.10
2018-02-17T09:09:00.237Z,36.10
2018-02-17T09:11:28.421Z,35.77
2018-02-17T09:13:57.381Z,39.13
2018-02-17T09:16:25.570Z,37.43
2018-02-17T09:18:54.496Z,34.70
2018-02-17T09:21:22.670Z,34.30
2018-02-17T09:23:51.697Z,34.93
2018-02-17T09:26:19.906Z,36.87
2018-02-17T09:28:48.084Z,33.27
2018-02-17T09:31:16.302Z,42.83
2018-02-17T09:33:44.496Z,34.30
2018-02-17T09:36:12.742Z,37.50
2018-02-17T09:38:41.675Z,46.83
2018-02-17T09:41:09.912Z,43.33
2018-02-17T09:43:38.088Z,43.90
2018-02-17T09:46:06.287Z,47.97
2018-02-17T09:48:34.480Z,48.83
2018-02-17T09:51:02.662Z,36.10
2018-02-17T09:53:30.858Z,42.30
2018-02-17T09:55:59.043Z,45.53
2018-02-17T09:58:27.981Z,43.00
2018-02-17T10:00:56.186Z,46.10
2018-02-17T10:03:24.366Z,47.77
2018-02-17T10:05:52.543Z,46.80
2018-02-17T10:08:20.720Z,45.50
2018-02-17T10:10:48.906Z,50.43
2018-02-17T10:13:17.133Z,44.43
2018-02-17T10:15:45.295Z,44.63
2018-02-17T10:18:13.495Z,45.80
2018-02-17T10:20:41.713Z,44.93
2018-02-17T10:23:09.888Z,43.37
2018-02-17T10:25:38.842Z,41.53
2018-02-17T10:28:07.055Z,35.37
2018-02-17T10:30:35.991Z,39.97
2018-02-17T10:33:04.166Z,38.13
2018-02-17T10:35:32.435Z,37.77
2018-02-17T10:38:00.549Z,34.00
2018-02-17T10:40:28.720Z,30.43
2018-02-17T10:42:57.662Z,33.20
2018-02-17T10:45:25.833Z,32.87
2018-02-17T10:47:54.099Z,35.23
2018-02-17T10:50:23.030Z,33.70
2018-02-17T10:52:51.195Z,39.10
2018-02-17T10:55:19.402Z,36.67
2018-02-17T10:57:47.580Z,36.73
2018-02-17T11:00:15.754Z,36.00
2018-02-17T11:02:43.922Z,31.70
2018-02-17T11:05:12.126Z,33.20
2018-02-17T11:07:41.089Z,37.10
2018-02-17T11:10:09.290Z,36.30
2018-02-17T11:12:37.467Z,32.80
2018-02-17T11:15:06.434Z,39.37
2018-02-17T11:17:34.613Z,34.33
2018-02-17T11:20:02.801Z,34.87
2018-02-17T11:22:30.975Z,39.60
2018-02-17T11:24:59.150Z,34.77
2018-02-17T11:27:27.331Z,36.07
2018-02-17T11:29:55.536Z,38.40
2018-02-17T11:32:23.708Z,35.93
2018-02-17T11:34:51.908Z,33.27
2018-02-17T11:37:20.095Z,33.23
2018-02-17T11:39:48.270Z,32.53
2018-02-17T11:42:16.498Z,34.10
2018-02-17T11:44:45.450Z,32.47
2018-02-17T11:47:13.615Z,31.33
2018-02-17T11:49:41.797Z,31.40
2018-02-17T11:52:09.962Z,29.97
2018-02-17T11:54:38.128Z,28.67
2018-02-17T11:57:06.342Z,26.03
2018-02-17T11:59:34.577Z,28.10
2018-02-17T12:02:03.498Z,29.67
2018-02-17T12:04:31.712Z,27.27
2018-02-17T12:07:00.658Z,26.40
2018-02-17T12:09:28.841Z,27.03
2018-02-17T12:11:57.038Z,25.70
2018-02-17T12:14:26.033Z,26.50
2018-02-17T12:16:55.025Z,28.37
2018-02-17T12:19:23.184Z,30.43
2018-02-17T12:21:51.373Z,27.97
2018-02-17T12:24:20.353Z,29.50
2018-02-17T12:26:48.526Z,29.37
2018-02-17T12:29:16.696Z,28.40
2018-02-17T12:31:44.883Z,29.80
2018-02-17T12:34:13.059Z,29.20
2018-02-17T12:36:42.019Z,30.63
2018-02-17T12:39:10.189Z,29.70
2018-02-17T12:41:38.379Z,30.97
2018-02-17T12:44:07.348Z,31.13
2018-02-17T12:46:35.752Z,30.50
2018-02-17T12:49:03.931Z,28.87
2018-02-17T12:51:32.115Z,30.73
2018-02-17T12:54:00.300Z,30.97
2018-02-17T12:56:28.474Z,31.30
2018-02-17T12:58:56.657Z,33.07
2018-02-17T13:01:25.610Z,30.97
2018-02-17T13:03:53.784Z,31.30
2018-02-17T13:06:21.970Z,31.37
2018-02-17T13:08:50.177Z,29.33
2018-02-17T13:11:19.119Z,29.17
2018-02-17T13:13:47.396Z,27.20
2018-02-17T13:16:16.333Z,28.43
2018-02-17T13:18:45.291Z,30.50
2018-02-17T13:21:13.494Z,26.67
2018-02-17T13:23:41.702Z,27.13
2018-02-17T13:26:09.939Z,29.13
2018-02-17T13:28:38.133Z,32.87
2018-02-17T13:31:07.079Z,27.07
2018-02-17T13:33:35.264Z,26.43
2018-02-17T13:36:03.542Z,27.00
2018-02-17T13:38:31.713Z,24.70
2018-02-17T13:40:59.904Z,31.10
2018-02-17T13:43:28.101Z,29.67
2018-02-17T13:45:57.073Z,32.13
2018-02-17T13:48:25.312Z,28.60
2018-02-17T13:50:53.505Z,26.30
2018-02-17T13:53:21.693Z,29.20
2018-02-17T13:55:49.898Z,27.37
2018-02-17T13:58:18.854Z,28.70
2018-02-17T14:00:47.033Z,32.13
2018-02-17T14:03:15.307Z,30.60
2018-02-17T14:05:44.271Z,23.03
2018-02-17T14:08:12.453Z,21.63
2018-02-17T14:10:40.617Z,22.57
2018-02-17T14:13:08.794Z,22.40
2018-02-17T14:15:36.990Z,21.70
2018-02-17T14:18:05.170Z,19.37
2018-02-17T14:20:33.374Z,17.30
2018-02-17T14:23:02.326Z,18.93
2018-02-17T14:25:30.505Z,16.17
2018-02-17T14:27:58.675Z,21.50
2018-02-17T14:30:26.842Z,19.50
2018-02-17T14:32:55.013Z,19.47
2018-02-17T14:35:23.187Z,20.57
2018-02-17T14:37:51.360Z,21.70
2018-02-17T14:40:19.530Z,22.37
2018-02-17T14:42:47.722Z,24.60
2018-02-17T14:45:15.883Z,23.50
2018-02-17T14:47:44.037Z,26.13
2018-02-17T14:50:12.215Z,31.53
2018-02-17T14:52:40.403Z,27.57
2018-02-17T14:55:08.586Z,32.33
2018-02-17T14:57:36.786Z,24.60
2018-02-17T15:00:05.066Z,29.97
2018-02-17T15:02:33.249Z,25.90
2018-02-17T15:05:01.425Z,31.13
2018-02-17T15:07:29.634Z,25.40
2018-02-17T15:09:57.818Z,29.23
2018-02-17T15:12:25.994Z,26.97
2018-02-17T15:14:54.172Z,29.57
2018-02-17T15:17:22.345Z,29.03
2018-02-17T15:19:50.530Z,27.47
2018-02-17T15:22:18.707Z,29.73
2018-02-17T15:24:46.900Z,27.73
2018-02-17T15:27:15.110Z,30.03
2018-02-17T15:29:44.050Z,34.63
2018-02-17T15:32:12.226Z,29.10
2018-02-17T15:34:40.411Z,32.63
2018-02-17T15:37:08.605Z,34.60
2018-02-17T15:39:36.789Z,33.03
2018-02-17T15:42:04.959Z,35.60
2018-02-17T15:44:33.263Z,31.93
2018-02-17T15:47:01.456Z,31.70
2018-02-17T15:49:29.637Z,33.20
2018-02-17T15:51:57.807Z,34.50
2018-02-17T15:54:25.978Z,35.10
2018-02-17T15:56:54.174Z,29.90
2018-02-17T15:59:22.367Z,36.10
2018-02-17T16:01:50.549Z,36.53
2018-02-17T16:04:18.742Z,35.47
2018-02-17T16:06:46.927Z,31.43
2018-02-17T16:09:15.866Z,38.47
2018-02-17T16:11:44.054Z,36.50
2018-02-17T16:14:12.225Z,32.50
2018-02-17T16:16:40.407Z,40.43
2018-02-17T16:19:08.584Z,33.90
2018-02-17T16:21:36.788Z,36.93
2018-02-17T16:24:04.974Z,35.70
2018-02-17T16:26:33.932Z,29.20
2018-02-17T16:29:02.106Z,34.57
2018-02-17T16:31:30.305Z,30.10
2018-02-17T16:33:58.483Z,34.33
2018-02-17T16:36:26.674Z,33.67
2018-02-17T16:38:55.604Z,33.70
2018-02-17T16:41:23.774Z,34.87
2018-02-17T16:43:51.935Z,30.03
2018-02-17T16:46:20.125Z,37.30
2018-02-17T16:48:48.308Z,33.73
2018-02-17T16:51:16.502Z,31.13
2018-02-17T16:53:44.691Z,33.93
2018-02-17T16:56:12.886Z,36.27
2018-02-17T16:58:41.837Z,36.57
2018-02-17T17:01:10.015Z,37.73
2018-02-17T17:03:38.185Z,38.50
2018-02-17T17:06:06.374Z,41.00
2018-02-17T17:08:34.566Z,44.53
2018-02-17T17:11:03.519Z,42.30
2018-02-17T17:13:31.708Z,43.47
2018-02-17T17:15:59.913Z,44.53
2018-02-17T17:18:28.883Z,48.50
2018-02-17T17:20:57.081Z,44.00
2018-02-17T17:23:26.026Z,48.00
2018-02-17T17:25:54.200Z,46.30
2018-02-17T17:28:22.388Z,47.10
2018-02-17T17:30:50.565Z,50.30
2018-02-17T17:33:18.749Z,51.00
2018-02-17T17:35:46.972Z,47.60
2018-02-17T17:38:15.227Z,48.60
2018-02-17T17:40:43.448Z,46.73
2018-02-17T17:43:11.625Z,47.20
2018-02-17T17:45:39.834Z,45.83
2018-02-17T17:48:08.014Z,53.17
2018-02-17T17:50:36.248Z,52.53
2018-02-17T17:53:04.440Z,53.90
2018-02-17T17:55:32.695Z,54.80
2018-02-17T17:58:00.903Z,55.13
2018-02-17T18:00:29.081Z,54.23
2018-02-17T18:02:57.264Z,52.87
2018-02-17T18:05:25.433Z,53.53
2018-02-17T18:07:53.610Z,61.93
2018-02-17T18:10:21.830Z,50.70
2018-02-17T18:12:50.011Z,56.43
2018-02-17T18:15:18.223Z,56.57
2018-02-17T18:17:46.401Z,57.93
2018-02-17T18:20:15.361Z,56.60
2018-02-17T18:22:43.542Z,57.00
2018-02-17T18:25:11.739Z,59.20
2018-02-17T18:27:39.988Z,56.17
2018-02-17T18:30:08.180Z,57.80
2018-02-17T18:32:37.173Z,54.50
2018-02-17T18:35:05.350Z,65.20
2018-02-17T18:37:33.524Z,73.90
2018-02-17T18:40:01.694Z,61.10
2018-02-17T18:42:29.872Z,60.07
2018-02-17T18:44:58.040Z,58.13
2018-02-17T18:47:26.220Z,62.50
2018-02-17T18:49:54.391Z,61.97
2018-02-17T18:52:22.578Z,59.10
2018-02-17T18:54:50.767Z,67.93
2018-02-17T18:57:18.950Z,59.27
2018-02-17T18:59:47.909Z,61.93
2018-02-17T19:02:16.089Z,58.63
2018-02-17T19:04:44.319Z,58.70
2018-02-17T19:07:12.504Z,55.70
2018-02-17T19:09:41.016Z,65.97
2018-02-17T19:12:09.247Z,56.80
2018-02-17T19:14:38.233Z,61.23
2018-02-17T19:17:06.490Z,56.73
2018-02-17T19:19:34.667Z,60.17
2018-02-17T19:22:02.879Z,56.73
2018-02-17T20:40:29.479Z,63.17
2018-02-17T20:42:57.703Z,65.20
2018-02-17T20:45:26.645Z,65.97
2018-02-17T20:47:54.805Z,68.60
2018-02-17T20:50:22.983Z,69.77
2018-02-17T20:52:51.163Z,70.83
2018-02-17T20:55:19.327Z,68.33
2018-02-17T20:57:47.507Z,64.37
2018-02-17T21:00:15.702Z,73.07
2018-02-17T21:02:43.895Z,69.63
2018-02-17T21:05:12.867Z,65.00
2018-02-17T21:07:41.065Z,66.77
2018-02-17T21:10:09.250Z,62.97
2018-02-17T21:12:37.496Z,64.80
2018-02-17T21:15:05.720Z,71.67
2018-02-17T21:17:33.926Z,68.10
2018-02-17T21:20:02.116Z,81.27
2018-02-17T21:22:30.282Z,69.33
2018-02-17T21:24:58.468Z,72.40
2018-02-17T21:27:26.646Z,65.57
2018-02-17T21:29:55.147Z,72.13
2018-02-17T21:32:23.726Z,67.70
2018-02-17T21:34:51.907Z,68.87
2018-02-17T21:37:20.081Z,72.50
2018-02-17T21:39:48.266Z,61.90
2018-02-17T21:42:17.212Z,66.23
2018-02-17T21:44:45.380Z,67.17
2018-02-17T21:47:13.589Z,71.17
2018-02-17T21:49:41.778Z,81.57
2018-02-17T21:52:10.739Z,84.57
2018-02-17T21:54:38.942Z,68.97
2018-02-17T21:57:07.128Z,75.67
2018-02-17T21:59:36.097Z,81.37
2018-02-17T22:02:04.272Z,70.00
2018-02-17T22:04:32.515Z,73.83
2018-02-17T22:07:00.696Z,79.97
2018-02-17T22:09:28.878Z,64.97
2018-02-17T22:11:57.049Z,67.73
2018-02-17T22:14:25.226Z,66.10
2018-02-17T22:16:54.446Z,63.63
2018-02-17T22:19:22.641Z,74.20
2018-02-17T22:21:51.622Z,72.23
2018-02-17T22:24:19.890Z,61.90
2018-02-17T22:26:48.029Z,64.90
2018-02-17T22:29:16.212Z,67.97
2018-02-17T22:31:44.387Z,64.43
2018-02-17T22:34:12.567Z,71.87
2018-02-17T22:36:40.758Z,79.10
2018-02-17T22:39:08.975Z,69.13
2018-02-17T22:41:37.907Z,73.90
2018-02-17T22:44:06.082Z,70.53
2018-02-17T22:46:34.258Z,83.53
2018-02-17T22:49:02.449Z,74.17
2018-02-17T22:51:30.650Z,80.77
2018-02-17T22:53:59.640Z,79.57
2018-02-17T22:56:28.623Z,78.20
2018-02-17T22:58:56.799Z,84.43
2018-02-17T23:01:24.991Z,81.93
2018-02-17T23:03:53.935Z,81.67
2018-02-17T23:06:22.138Z,93.47
2018-02-17T23:08:50.311Z,84.47
2018-02-17T23:11:18.487Z,77.70
2018-02-17T23:13:46.699Z,88.10
2018-02-17T23:16:14.904Z,77.60
2018-02-17T23:18:43.079Z,86.37
2018-02-17T23:21:11.356Z,89.70
2018-02-17T23:23:39.548Z,81.13
2018-02-17T23:26:07.731Z,83.73
2018-02-17T23:28:35.919Z,79.47
2018-02-17T23:31:04.098Z,81.33
2018-02-17T23:33:33.045Z,74.20
2018-02-17T23:36:01.243Z,81.90
2018-02-17T23:38:29.445Z,78.40
2018-02-17T23:40:58.398Z,83.43
2018-02-17T23:43:26.567Z,82.17
2018-02-17T23:45:54.755Z,76.70
2018-02-17T23:48:22.935Z,76.80
2018-02-17T23:50:51.103Z,85.23
2018-02-17T23:53:19.290Z,88.30
2018-02-17T23:55:47.475Z,75.17
2018-02-17T23:58:15.678Z,73.00
